< < Back
Terminal Aerodrome Forecast


Current Version              Previous Versions:   1  2  3  4  5  6  7  8  9  

Terminal Aerodrome Forecast

815
FTUS42 KTAE 232300
TAFABY
TAF
KABY 232320Z 2400/2424 VRB04KT P6SM FEW070
     FM240300 00000KT P6SM SKC
      TEMPO 2410/2412 5SM BR
     FM241400 19006KT P6SM SCT060=



Latest METAR

685
SAUS70 KWBC 240400
MTRABY
METAR KABY 240353Z 00000KT 7SM CLR 17/15 A2995 RMK AO2 SLP140
T01670150


USA.gov is the U.S. government's official web portal to all federal, state and local government web resources and services.